createdAt,value
2022-08-07T00:01:01.501Z,1.33
2022-08-07T00:06:29.569Z,1.25
2022-08-07T00:11:35.606Z,1.27
2022-08-07T00:16:49.908Z,1.15
2022-08-07T00:21:57.508Z,1.33
2022-08-07T00:27:07.158Z,1.60
2022-08-07T00:32:11.523Z,1.35
2022-08-07T00:37:16.545Z,1.55
2022-08-07T00:42:18.215Z,1.23
2022-08-07T00:48:08.884Z,1.30
2022-08-07T00:52:49.077Z,1.30
2022-08-07T00:57:55.872Z,1.02
2022-08-07T01:02:57.933Z,1.60
2022-08-07T01:07:59.856Z,1.20
2022-08-07T01:13:01.820Z,1.30
2022-08-07T01:18:05.489Z,1.50
2022-08-07T01:23:14.358Z,1.33
2022-08-07T01:28:17.050Z,1.17
2022-08-07T01:33:22.965Z,1.38
2022-08-07T01:38:29.306Z,1.30
2022-08-07T01:43:38.214Z,1.10
2022-08-07T01:48:46.592Z,1.42
2022-08-07T01:54:12.414Z,1.63
2022-08-07T01:59:36.174Z,1.63
2022-08-07T02:05:07.601Z,1.30
2022-08-07T02:10:22.894Z,1.55
2022-08-07T02:15:27.985Z,1.65
2022-08-07T02:20:32.146Z,1.20
2022-08-07T02:26:30.925Z,1.17
2022-08-07T02:31:10.325Z,1.42
2022-08-07T02:36:29.163Z,1.30
2022-08-07T02:41:39.373Z,1.17
2022-08-07T02:46:53.054Z,1.40
2022-08-07T02:51:59.020Z,1.30
2022-08-07T02:57:02.334Z,1.17
2022-08-07T03:02:09.810Z,1.52
2022-08-07T03:07:16.750Z,1.48
2022-08-07T03:12:31.021Z,1.70
2022-08-07T03:17:52.901Z,1.08
2022-08-07T03:22:58.694Z,1.50
2022-08-07T03:28:37.198Z,1.60
2022-08-07T03:33:25.821Z,1.30
2022-08-07T03:38:43.897Z,1.50
2022-08-07T03:43:57.008Z,1.52
2022-08-07T03:49:02.403Z,1.60
2022-08-07T03:54:36.154Z,1.27
2022-08-07T03:59:32.418Z,1.80
2022-08-07T04:04:35.052Z,2.00
2022-08-07T04:09:45.245Z,1.42
2022-08-07T04:14:55.382Z,1.30
2022-08-07T04:19:58.674Z,1.52
2022-08-07T04:25:03.045Z,1.50
2022-08-07T04:30:35.474Z,1.33
2022-08-07T04:35:38.109Z,1.20
2022-08-07T04:40:52.938Z,1.63
2022-08-07T04:46:12.506Z,1.25
2022-08-07T04:51:37.364Z,1.23
2022-08-07T04:58:12.861Z,1.45
2022-08-07T05:02:27.491Z,1.15
2022-08-07T05:07:48.191Z,1.27
2022-08-07T05:13:09.856Z,1.50
2022-08-07T05:18:29.655Z,1.48
2022-08-07T05:23:51.232Z,1.85
2022-08-07T05:28:56.016Z,1.60
2022-08-07T05:34:05.488Z,1.58
2022-08-07T05:40:05.819Z,2.05
2022-08-07T05:44:46.495Z,1.60
2022-08-07T05:49:53.398Z,1.35
2022-08-07T05:55:01.883Z,1.30
2022-08-07T06:00:16.652Z,1.40
2022-08-07T06:05:28.865Z,1.30
2022-08-07T06:10:37.598Z,1.65
2022-08-07T06:15:42.975Z,1.90
2022-08-07T06:22:16.968Z,1.25
2022-08-07T06:26:16.736Z,1.20
2022-08-07T06:31:18.806Z,1.17
2022-08-07T06:36:35.366Z,0.80
2022-08-07T06:41:59.165Z,0.85
2022-08-07T06:47:24.833Z,1.35
2022-08-07T06:52:36.752Z,1.15
2022-08-07T06:57:50.885Z,1.23
2022-08-07T07:03:01.005Z,1.27
2022-08-07T07:08:18.627Z,1.50
2022-08-07T07:13:55.638Z,1.30
2022-08-07T07:19:11.480Z,1.15
2022-08-07T07:24:27.014Z,1.13
2022-08-07T07:29:56.559Z,1.45
2022-08-07T07:34:59.235Z,1.10
2022-08-07T07:40:14.986Z,1.58
2022-08-07T07:45:22.786Z,1.10
2022-08-07T07:50:43.086Z,1.15
2022-08-07T07:55:54.978Z,1.30
2022-08-07T08:02:03.374Z,1.48
2022-08-07T08:06:26.742Z,1.48
2022-08-07T08:12:00.024Z,0.90
2022-08-07T08:16:52.153Z,1.15
2022-08-07T08:22:14.358Z,1.00
2022-08-07T08:27:21.805Z,0.70
2022-08-07T08:32:39.322Z,0.85
2022-08-07T08:38:01.447Z,0.50
2022-08-07T08:43:05.312Z,0.50
2022-08-07T08:48:28.289Z,2.08
2022-08-07T08:54:02.552Z,0.50
2022-08-07T08:59:29.210Z,0.68
2022-08-07T09:04:54.809Z,0.60
2022-08-07T09:10:21.070Z,0.75
2022-08-07T09:16:22.612Z,0.52
2022-08-07T09:21:13.925Z,0.57
2022-08-07T09:27:04.549Z,0.77
2022-08-07T09:32:26.295Z,0.75
2022-08-07T09:38:10.409Z,0.82
2022-08-07T09:44:03.631Z,0.70
2022-08-07T09:50:03.007Z,0.80
2022-08-07T09:54:44.120Z,1.00
2022-08-07T10:00:07.792Z,0.80
2022-08-07T10:05:58.160Z,0.77
2022-08-07T10:12:01.517Z,0.73
2022-08-07T10:18:00.399Z,1.05
2022-08-07T10:23:16.991Z,0.80
2022-08-07T10:28:24.849Z,0.80
2022-08-07T10:34:15.040Z,0.60
2022-08-07T10:39:41.447Z,0.80
2022-08-07T10:44:54.626Z,0.65
2022-08-07T10:50:10.166Z,0.47
2022-08-07T10:55:26.998Z,0.70
2022-08-07T11:01:11.713Z,0.60
2022-08-07T11:06:21.944Z,1.00
2022-08-07T11:11:35.986Z,0.60
2022-08-07T11:16:51.053Z,0.52
2022-08-07T11:22:26.485Z,0.75
2022-08-07T11:28:02.718Z,0.60
2022-08-07T11:33:17.559Z,0.60
2022-08-07T11:38:57.254Z,0.60
2022-08-07T11:44:18.593Z,0.68
2022-08-07T11:50:11.323Z,0.68
2022-08-07T11:55:18.712Z,0.70
2022-08-07T12:01:12.162Z,0.50
2022-08-07T12:06:37.173Z,0.70
2022-08-07T12:12:10.205Z,0.50
2022-08-07T12:17:19.699Z,0.57
2022-08-07T12:22:56.496Z,0.45
2022-08-07T12:28:09.646Z,0.65
2022-08-07T12:33:23.555Z,0.80
2022-08-07T12:38:42.615Z,0.85
2022-08-07T12:44:04.583Z,0.57
2022-08-07T12:49:52.982Z,0.57
2022-08-07T12:55:18.254Z,0.80
2022-08-07T13:00:32.804Z,0.60
2022-08-07T13:06:03.453Z,0.98
2022-08-07T13:12:02.456Z,0.70
2022-08-07T13:17:03.233Z,0.65
2022-08-07T13:22:29.840Z,0.50
2022-08-07T13:28:10.951Z,0.77
2022-08-07T13:34:31.338Z,0.60
2022-08-07T13:39:12.946Z,0.88
2022-08-07T13:44:37.158Z,0.75
2022-08-07T13:50:32.659Z,0.60
2022-08-07T13:55:25.486Z,0.70
2022-08-07T14:00:50.518Z,0.82
2022-08-07T14:05:57.429Z,0.55
2022-08-07T14:11:14.980Z,0.65
2022-08-07T14:16:23.297Z,0.70
2022-08-07T14:22:04.222Z,0.52
2022-08-07T14:28:11.750Z,0.90
2022-08-07T14:32:36.710Z,0.98
2022-08-07T14:37:44.868Z,0.50
2022-08-07T14:43:55.966Z,0.90
2022-08-07T14:48:37.133Z,0.68
2022-08-07T14:54:05.817Z,1.00
2022-08-07T14:59:13.872Z,0.93
2022-08-07T15:04:31.596Z,0.80
2022-08-07T15:15:07.431Z,0.80
2022-08-07T15:25:38.258Z,0.90
2022-08-07T15:31:05.051Z,0.82
2022-08-07T15:47:03.207Z,0.60
2022-08-07T15:52:10.701Z,0.60
2022-08-07T15:57:28.007Z,0.90
2022-08-07T16:02:46.675Z,1.15
2022-08-07T16:08:33.332Z,0.65
2022-08-07T16:13:59.685Z,0.82
2022-08-07T16:19:41.831Z,0.60
2022-08-07T16:24:55.479Z,0.63
2022-08-07T16:30:31.498Z,0.82
2022-08-07T16:35:58.320Z,0.68
2022-08-07T16:41:02.047Z,0.40
2022-08-07T16:47:05.764Z,1.02
2022-08-07T16:52:50.949Z,1.67
2022-08-07T16:58:01.996Z,0.80
2022-08-07T17:03:11.251Z,0.88
2022-08-07T17:08:57.458Z,0.63
2022-08-07T17:14:19.080Z,0.85
2022-08-07T17:20:02.087Z,0.80
2022-08-07T17:25:15.752Z,0.70
2022-08-07T17:30:20.495Z,0.90
2022-08-07T17:35:51.776Z,0.95
2022-08-07T17:40:56.196Z,0.68
2022-08-07T17:46:11.912Z,0.88
2022-08-07T17:51:59.776Z,0.77
2022-08-07T17:57:18.980Z,0.98
2022-08-07T18:02:40.019Z,0.95
2022-08-07T18:08:11.255Z,0.90
2022-08-07T18:13:40.528Z,1.00
2022-08-07T18:21:07.604Z,1.30
2022-08-07T18:24:33.862Z,1.23
2022-08-07T18:30:31.390Z,1.08
2022-08-07T18:35:59.474Z,1.00
2022-08-07T18:41:16.637Z,1.23
2022-08-07T18:46:25.567Z,1.48
2022-08-07T18:52:33.515Z,1.52
2022-08-07T18:57:30.579Z,1.48
2022-08-07T19:02:44.860Z,1.80
2022-08-07T19:07:57.514Z,1.10
2022-08-07T19:13:21.987Z,1.90
2022-08-07T19:18:46.501Z,1.48
2022-08-07T19:23:58.585Z,1.65
2022-08-07T19:31:02.069Z,1.33
2022-08-07T19:34:32.573Z,1.33
2022-08-07T19:39:56.159Z,1.60
2022-08-07T19:45:08.288Z,1.35
2022-08-07T19:50:43.829Z,1.92
2022-08-07T19:55:56.292Z,1.35
2022-08-07T20:00:57.453Z,1.60
2022-08-07T20:06:03.225Z,1.60
2022-08-07T20:11:10.485Z,1.90
2022-08-07T20:16:35.641Z,2.17
2022-08-07T20:21:47.386Z,2.10
2022-08-07T20:26:54.796Z,1.98
2022-08-07T20:31:59.938Z,1.83
2022-08-07T20:37:05.721Z,2.35
2022-08-07T20:42:11.745Z,1.92
2022-08-07T20:47:14.757Z,1.92
2022-08-07T20:52:21.041Z,1.75
2022-08-07T20:57:29.761Z,1.95
2022-08-07T21:02:58.640Z,1.90
2022-08-07T21:08:05.362Z,1.73
2022-08-07T21:13:13.126Z,2.65
2022-08-07T21:18:27.822Z,2.25
2022-08-07T21:23:50.090Z,2.20
2022-08-07T21:29:15.696Z,2.30
2022-08-07T21:34:31.849Z,1.60
2022-08-07T21:40:03.728Z,1.65
2022-08-07T21:46:10.079Z,2.17
2022-08-07T21:50:48.709Z,2.03
2022-08-07T21:56:16.565Z,1.58
2022-08-07T22:02:11.074Z,2.10
2022-08-07T22:07:58.084Z,1.75
2022-08-07T22:13:09.169Z,1.98
2022-08-07T22:18:19.296Z,1.63
2022-08-07T22:23:31.292Z,1.60
2022-08-07T22:29:00.218Z,1.65
2022-08-07T22:34:12.812Z,2.30
2022-08-07T22:39:53.452Z,1.80
2022-08-07T22:44:59.733Z,1.98
2022-08-07T22:50:33.372Z,2.20
2022-08-07T22:56:03.018Z,1.63
2022-08-07T23:02:00.417Z,2.33
2022-08-07T23:07:40.422Z,1.90
2022-08-07T23:12:56.459Z,1.73
2022-08-07T23:18:10.392Z,2.35
2022-08-07T23:24:05.935Z,2.33
2022-08-07T23:29:43.694Z,2.05
2022-08-07T23:35:06.347Z,1.75
2022-08-07T23:40:19.997Z,2.08
2022-08-07T23:46:01.741Z,2.13
2022-08-07T23:51:03.900Z,2.63
2022-08-07T23:56:42.732Z,2.20
